sensor_id;sensor_type;location;lat;lon;timestamp;P1;durP1;ratioP1;P2;durP2;ratioP2
40198;SDS011;25906;43.536;26.068;2024-03-17T00:01:45;20.20;;;10.40;;
40198;SDS011;25906;43.536;26.068;2024-03-17T00:04:33;19.95;;;10.68;;
40198;SDS011;25906;43.536;26.068;2024-03-17T00:07:18;22.98;;;11.07;;
40198;SDS011;25906;43.536;26.068;2024-03-17T00:10:07;17.40;;;9.55;;
40198;SDS011;25906;43.536;26.068;2024-03-17T00:12:53;21.25;;;11.43;;
40198;SDS011;25906;43.536;26.068;2024-03-17T00:15:38;24.00;;;10.60;;
40198;SDS011;25906;43.536;26.068;2024-03-17T00:18:24;22.80;;;10.57;;
40198;SDS011;25906;43.536;26.068;2024-03-17T00:21:14;20.73;;;10.20;;
40198;SDS011;25906;43.536;26.068;2024-03-17T00:23:59;22.67;;;10.65;;
40198;SDS011;25906;43.536;26.068;2024-03-17T00:26:47;22.30;;;10.88;;
40198;SDS011;25906;43.536;26.068;2024-03-17T00:29:36;21.80;;;11.73;;
40198;SDS011;25906;43.536;26.068;2024-03-17T00:32:24;24.10;;;11.43;;
40198;SDS011;25906;43.536;26.068;2024-03-17T00:35:10;26.33;;;11.48;;
40198;SDS011;25906;43.536;26.068;2024-03-17T00:38:05;20.77;;;11.93;;
40198;SDS011;25906;43.536;26.068;2024-03-17T00:40:58;21.52;;;11.13;;
40198;SDS011;25906;43.536;26.068;2024-03-17T00:43:44;21.33;;;11.07;;
40198;SDS011;25906;43.536;26.068;2024-03-17T00:46:30;24.45;;;11.25;;
40198;SDS011;25906;43.536;26.068;2024-03-17T00:49:15;25.58;;;12.43;;
40198;SDS011;25906;43.536;26.068;2024-03-17T00:52:01;21.20;;;11.55;;
40198;SDS011;25906;43.536;26.068;2024-03-17T00:54:46;22.70;;;11.60;;
40198;SDS011;25906;43.536;26.068;2024-03-17T00:57:32;20.38;;;11.40;;
40198;SDS011;25906;43.536;26.068;2024-03-17T01:00:18;18.90;;;10.52;;
40198;SDS011;25906;43.536;26.068;2024-03-17T01:03:04;24.73;;;10.98;;
40198;SDS011;25906;43.536;26.068;2024-03-17T01:05:49;18.98;;;10.80;;
40198;SDS011;25906;43.536;26.068;2024-03-17T01:08:37;21.08;;;10.85;;
40198;SDS011;25906;43.536;26.068;2024-03-17T01:11:23;20.83;;;11.30;;
40198;SDS011;25906;43.536;26.068;2024-03-17T01:14:12;24.55;;;12.93;;
40198;SDS011;25906;43.536;26.068;2024-03-17T01:16:58;23.42;;;11.32;;
40198;SDS011;25906;43.536;26.068;2024-03-17T01:19:45;20.00;;;11.70;;
40198;SDS011;25906;43.536;26.068;2024-03-17T01:22:33;22.10;;;12.43;;
40198;SDS011;25906;43.536;26.068;2024-03-17T01:25:19;23.73;;;11.85;;
40198;SDS011;25906;43.536;26.068;2024-03-17T01:28:07;21.65;;;11.25;;
40198;SDS011;25906;43.536;26.068;2024-03-17T01:30:53;19.75;;;11.07;;
40198;SDS011;25906;43.536;26.068;2024-03-17T01:33:39;22.85;;;11.90;;
40198;SDS011;25906;43.536;26.068;2024-03-17T01:36:25;22.35;;;11.57;;
40198;SDS011;25906;43.536;26.068;2024-03-17T01:39:10;20.08;;;11.32;;
40198;SDS011;25906;43.536;26.068;2024-03-17T01:41:57;20.98;;;11.02;;
40198;SDS011;25906;43.536;26.068;2024-03-17T01:44:46;22.75;;;10.27;;
40198;SDS011;25906;43.536;26.068;2024-03-17T01:47:32;20.02;;;11.05;;
40198;SDS011;25906;43.536;26.068;2024-03-17T01:50:18;22.85;;;11.60;;
40198;SDS011;25906;43.536;26.068;2024-03-17T01:53:10;23.42;;;11.88;;
40198;SDS011;25906;43.536;26.068;2024-03-17T01:55:58;23.25;;;11.80;;
40198;SDS011;25906;43.536;26.068;2024-03-17T01:58:45;25.50;;;13.02;;
40198;SDS011;25906;43.536;26.068;2024-03-17T02:01:33;26.60;;;11.63;;
40198;SDS011;25906;43.536;26.068;2024-03-17T02:04:19;19.25;;;11.23;;
40198;SDS011;25906;43.536;26.068;2024-03-17T02:07:06;21.30;;;11.80;;
40198;SDS011;25906;43.536;26.068;2024-03-17T02:09:52;23.55;;;11.13;;
40198;SDS011;25906;43.536;26.068;2024-03-17T02:12:37;22.35;;;12.20;;
40198;SDS011;25906;43.536;26.068;2024-03-17T02:15:23;22.30;;;11.52;;
40198;SDS011;25906;43.536;26.068;2024-03-17T02:18:08;20.52;;;10.80;;
40198;SDS011;25906;43.536;26.068;2024-03-17T02:20:54;22.63;;;11.05;;
40198;SDS011;25906;43.536;26.068;2024-03-17T02:23:46;24.45;;;11.68;;
40198;SDS011;25906;43.536;26.068;2024-03-17T02:26:31;23.15;;;11.40;;
40198;SDS011;25906;43.536;26.068;2024-03-17T02:29:20;20.13;;;10.95;;
40198;SDS011;25906;43.536;26.068;2024-03-17T02:32:08;21.15;;;11.57;;
40198;SDS011;25906;43.536;26.068;2024-03-17T02:34:54;21.38;;;11.40;;
40198;SDS011;25906;43.536;26.068;2024-03-17T02:37:40;22.73;;;10.73;;
40198;SDS011;25906;43.536;26.068;2024-03-17T02:40:25;24.80;;;12.18;;
40198;SDS011;25906;43.536;26.068;2024-03-17T02:43:11;22.20;;;11.30;;
40198;SDS011;25906;43.536;26.068;2024-03-17T02:45:56;23.00;;;12.00;;
40198;SDS011;25906;43.536;26.068;2024-03-17T02:48:42;27.50;;;12.05;;
40198;SDS011;25906;43.536;26.068;2024-03-17T02:51:34;22.25;;;12.65;;
40198;SDS011;25906;43.536;26.068;2024-03-17T02:54:23;21.20;;;11.25;;
40198;SDS011;25906;43.536;26.068;2024-03-17T02:57:08;21.05;;;11.75;;
40198;SDS011;25906;43.536;26.068;2024-03-17T02:59:54;22.50;;;11.63;;
40198;SDS011;25906;43.536;26.068;2024-03-17T03:02:40;25.65;;;11.70;;
40198;SDS011;25906;43.536;26.068;2024-03-17T03:05:27;22.27;;;10.80;;
40198;SDS011;25906;43.536;26.068;2024-03-17T03:08:15;20.75;;;10.63;;
40198;SDS011;25906;43.536;26.068;2024-03-17T03:11:01;23.08;;;11.50;;
40198;SDS011;25906;43.536;26.068;2024-03-17T03:13:46;22.13;;;11.32;;
40198;SDS011;25906;43.536;26.068;2024-03-17T03:16:33;23.75;;;11.30;;
40198;SDS011;25906;43.536;26.068;2024-03-17T03:19:19;20.48;;;10.70;;
40198;SDS011;25906;43.536;26.068;2024-03-17T03:22:04;31.55;;;11.45;;
40198;SDS011;25906;43.536;26.068;2024-03-17T03:24:51;19.98;;;10.38;;
40198;SDS011;25906;43.536;26.068;2024-03-17T03:27:37;19.92;;;11.27;;
40198;SDS011;25906;43.536;26.068;2024-03-17T03:30:26;25.75;;;11.38;;
40198;SDS011;25906;43.536;26.068;2024-03-17T03:35:57;24.67;;;11.80;;
40198;SDS011;25906;43.536;26.068;2024-03-17T03:38:45;25.73;;;12.00;;
40198;SDS011;25906;43.536;26.068;2024-03-17T03:41:31;20.33;;;10.45;;
40198;SDS011;25906;43.536;26.068;2024-03-17T03:44:26;23.42;;;11.23;;
40198;SDS011;25906;43.536;26.068;2024-03-17T03:47:15;20.73;;;10.75;;
40198;SDS011;25906;43.536;26.068;2024-03-17T03:52:49;21.17;;;10.75;;
40198;SDS011;25906;43.536;26.068;2024-03-17T03:55:36;25.20;;;12.40;;
40198;SDS011;25906;43.536;26.068;2024-03-17T03:58:22;25.05;;;12.07;;
40198;SDS011;25906;43.536;26.068;2024-03-17T04:01:12;25.55;;;12.95;;
40198;SDS011;25906;43.536;26.068;2024-03-17T04:06:49;27.50;;;12.63;;
40198;SDS011;25906;43.536;26.068;2024-03-17T04:09:38;33.33;;;15.30;;
40198;SDS011;25906;43.536;26.068;2024-03-17T04:12:24;27.60;;;16.05;;
40198;SDS011;25906;43.536;26.068;2024-03-17T04:15:10;28.50;;;14.88;;
40198;SDS011;25906;43.536;26.068;2024-03-17T04:17:56;33.40;;;14.57;;
40198;SDS011;25906;43.536;26.068;2024-03-17T04:20:41;23.55;;;11.95;;
40198;SDS011;25906;43.536;26.068;2024-03-17T04:23:27;26.65;;;13.70;;
40198;SDS011;25906;43.536;26.068;2024-03-17T04:26:12;24.50;;;12.82;;
40198;SDS011;25906;43.536;26.068;2024-03-17T04:28:59;27.30;;;13.13;;
40198;SDS011;25906;43.536;26.068;2024-03-17T04:31:45;22.60;;;12.43;;
40198;SDS011;25906;43.536;26.068;2024-03-17T04:34:33;25.33;;;11.70;;
40198;SDS011;25906;43.536;26.068;2024-03-17T04:37:19;24.13;;;12.57;;
40198;SDS011;25906;43.536;26.068;2024-03-17T04:40:05;25.75;;;13.35;;
40198;SDS011;25906;43.536;26.068;2024-03-17T04:42:54;27.75;;;13.60;;
40198;SDS011;25906;43.536;26.068;2024-03-17T04:45:40;23.52;;;13.38;;
40198;SDS011;25906;43.536;26.068;2024-03-17T04:48:25;28.38;;;13.35;;
40198;SDS011;25906;43.536;26.068;2024-03-17T04:51:15;27.35;;;13.10;;
40198;SDS011;25906;43.536;26.068;2024-03-17T04:54:01;24.40;;;12.73;;
40198;SDS011;25906;43.536;26.068;2024-03-17T04:56:52;24.98;;;12.18;;
40198;SDS011;25906;43.536;26.068;2024-03-17T04:59:37;25.33;;;12.40;;
40198;SDS011;25906;43.536;26.068;2024-03-17T05:05:08;27.55;;;13.50;;
40198;SDS011;25906;43.536;26.068;2024-03-17T05:07:55;24.70;;;13.82;;
40198;SDS011;25906;43.536;26.068;2024-03-17T05:10:40;29.70;;;13.63;;
40198;SDS011;25906;43.536;26.068;2024-03-17T05:13:27;26.77;;;14.45;;
40198;SDS011;25906;43.536;26.068;2024-03-17T05:16:12;25.55;;;13.68;;
40198;SDS011;25906;43.536;26.068;2024-03-17T05:18:58;28.95;;;14.55;;
40198;SDS011;25906;43.536;26.068;2024-03-17T05:21:44;29.48;;;14.55;;
40198;SDS011;25906;43.536;26.068;2024-03-17T05:24:30;29.00;;;14.65;;
40198;SDS011;25906;43.536;26.068;2024-03-17T05:30:01;28.88;;;14.25;;
40198;SDS011;25906;43.536;26.068;2024-03-17T05:32:49;27.38;;;13.65;;
40198;SDS011;25906;43.536;26.068;2024-03-17T05:35:35;28.85;;;14.68;;
40198;SDS011;25906;43.536;26.068;2024-03-17T05:38:24;28.10;;;14.85;;
40198;SDS011;25906;43.536;26.068;2024-03-17T05:41:10;27.00;;;13.35;;
40198;SDS011;25906;43.536;26.068;2024-03-17T05:43:56;29.83;;;13.75;;
40198;SDS011;25906;43.536;26.068;2024-03-17T05:46:43;24.02;;;12.63;;
40198;SDS011;25906;43.536;26.068;2024-03-17T05:49:28;27.65;;;13.63;;
40198;SDS011;25906;43.536;26.068;2024-03-17T05:52:14;28.83;;;14.43;;
40198;SDS011;25906;43.536;26.068;2024-03-17T05:55:00;34.75;;;16.20;;
40198;SDS011;25906;43.536;26.068;2024-03-17T06:00:31;28.05;;;14.10;;
40198;SDS011;25906;43.536;26.068;2024-03-17T06:03:16;28.83;;;15.18;;
40198;SDS011;25906;43.536;26.068;2024-03-17T06:08:48;29.60;;;14.50;;
40198;SDS011;25906;43.536;26.068;2024-03-17T06:11:34;27.23;;;13.55;;
40198;SDS011;25906;43.536;26.068;2024-03-17T06:14:20;38.03;;;16.05;;
40198;SDS011;25906;43.536;26.068;2024-03-17T06:17:05;31.95;;;15.25;;
40198;SDS011;25906;43.536;26.068;2024-03-17T06:19:53;32.72;;;14.48;;
40198;SDS011;25906;43.536;26.068;2024-03-17T06:22:39;28.98;;;13.82;;
40198;SDS011;25906;43.536;26.068;2024-03-17T06:25:25;27.35;;;14.52;;
40198;SDS011;25906;43.536;26.068;2024-03-17T06:28:11;27.30;;;14.48;;
40198;SDS011;25906;43.536;26.068;2024-03-17T06:31:01;32.30;;;15.68;;
40198;SDS011;25906;43.536;26.068;2024-03-17T06:33:52;28.55;;;14.73;;
40198;SDS011;25906;43.536;26.068;2024-03-17T06:36:37;32.72;;;15.52;;
40198;SDS011;25906;43.536;26.068;2024-03-17T06:39:23;28.40;;;15.65;;
40198;SDS011;25906;43.536;26.068;2024-03-17T06:44:54;27.10;;;14.82;;
40198;SDS011;25906;43.536;26.068;2024-03-17T06:47:42;28.85;;;15.55;;
40198;SDS011;25906;43.536;26.068;2024-03-17T06:50:31;28.10;;;14.82;;
40198;SDS011;25906;43.536;26.068;2024-03-17T06:53:16;28.55;;;15.10;;
40198;SDS011;25906;43.536;26.068;2024-03-17T06:56:02;25.85;;;14.55;;
40198;SDS011;25906;43.536;26.068;2024-03-17T06:58:48;25.92;;;14.45;;
40198;SDS011;25906;43.536;26.068;2024-03-17T07:01:34;25.77;;;15.07;;
40198;SDS011;25906;43.536;26.068;2024-03-17T07:04:19;26.35;;;13.00;;
40198;SDS011;25906;43.536;26.068;2024-03-17T07:07:06;25.13;;;14.30;;
40198;SDS011;25906;43.536;26.068;2024-03-17T07:09:51;25.02;;;13.48;;
40198;SDS011;25906;43.536;26.068;2024-03-17T07:12:40;22.75;;;14.02;;
40198;SDS011;25906;43.536;26.068;2024-03-17T07:15:26;27.15;;;14.75;;
40198;SDS011;25906;43.536;26.068;2024-03-17T07:18:12;25.63;;;15.18;;
40198;SDS011;25906;43.536;26.068;2024-03-17T07:21:03;29.75;;;13.88;;
40198;SDS011;25906;43.536;26.068;2024-03-17T07:23:49;21.08;;;12.68;;
40198;SDS011;25906;43.536;26.068;2024-03-17T07:26:35;21.48;;;12.02;;
40198;SDS011;25906;43.536;26.068;2024-03-17T07:29:20;24.45;;;12.30;;
40198;SDS011;25906;43.536;26.068;2024-03-17T07:32:06;30.08;;;11.85;;
40198;SDS011;25906;43.536;26.068;2024-03-17T07:34:54;27.92;;;13.07;;
40198;SDS011;25906;43.536;26.068;2024-03-17T07:37:43;28.23;;;13.10;;
40198;SDS011;25906;43.536;26.068;2024-03-17T07:40:28;19.95;;;11.77;;
40198;SDS011;25906;43.536;26.068;2024-03-17T07:43:20;18.88;;;10.57;;
40198;SDS011;25906;43.536;26.068;2024-03-17T07:46:07;21.08;;;10.88;;
40198;SDS011;25906;43.536;26.068;2024-03-17T07:48:56;16.83;;;10.40;;
40198;SDS011;25906;43.536;26.068;2024-03-17T07:51:42;17.98;;;11.15;;
40198;SDS011;25906;43.536;26.068;2024-03-17T07:54:29;19.98;;;10.77;;
40198;SDS011;25906;43.536;26.068;2024-03-17T07:57:15;17.58;;;10.52;;
40198;SDS011;25906;43.536;26.068;2024-03-17T08:00:00;20.45;;;11.27;;
40198;SDS011;25906;43.536;26.068;2024-03-17T08:02:46;20.20;;;11.57;;
40198;SDS011;25906;43.536;26.068;2024-03-17T08:05:31;19.27;;;11.25;;
40198;SDS011;25906;43.536;26.068;2024-03-17T08:08:17;23.33;;;11.95;;
40198;SDS011;25906;43.536;26.068;2024-03-17T08:11:03;19.90;;;10.57;;
40198;SDS011;25906;43.536;26.068;2024-03-17T08:13:49;22.60;;;10.40;;
40198;SDS011;25906;43.536;26.068;2024-03-17T08:16:34;17.23;;;10.48;;
40198;SDS011;25906;43.536;26.068;2024-03-17T08:19:21;13.05;;;8.75;;
40198;SDS011;25906;43.536;26.068;2024-03-17T08:22:07;19.30;;;8.75;;
40198;SDS011;25906;43.536;26.068;2024-03-17T08:24:52;13.07;;;8.52;;
40198;SDS011;25906;43.536;26.068;2024-03-17T08:27:38;11.32;;;7.35;;
40198;SDS011;25906;43.536;26.068;2024-03-17T08:30:23;13.38;;;8.68;;
40198;SDS011;25906;43.536;26.068;2024-03-17T08:33:09;14.93;;;9.95;;
40198;SDS011;25906;43.536;26.068;2024-03-17T08:35:56;11.90;;;8.00;;
40198;SDS011;25906;43.536;26.068;2024-03-17T08:38:42;13.10;;;8.75;;
40198;SDS011;25906;43.536;26.068;2024-03-17T08:41:27;12.88;;;7.55;;
40198;SDS011;25906;43.536;26.068;2024-03-17T08:44:15;13.10;;;8.70;;
40198;SDS011;25906;43.536;26.068;2024-03-17T08:47:01;13.23;;;8.20;;
40198;SDS011;25906;43.536;26.068;2024-03-17T08:49:46;18.80;;;8.48;;
40198;SDS011;25906;43.536;26.068;2024-03-17T08:52:32;14.45;;;7.20;;
40198;SDS011;25906;43.536;26.068;2024-03-17T08:55:18;10.55;;;7.40;;
40198;SDS011;25906;43.536;26.068;2024-03-17T08:58:03;13.18;;;7.95;;
40198;SDS011;25906;43.536;26.068;2024-03-17T09:00:49;13.45;;;7.72;;
40198;SDS011;25906;43.536;26.068;2024-03-17T09:03:36;12.15;;;7.15;;
40198;SDS011;25906;43.536;26.068;2024-03-17T09:06:21;12.75;;;8.38;;
40198;SDS011;25906;43.536;26.068;2024-03-17T09:09:07;10.52;;;6.63;;
40198;SDS011;25906;43.536;26.068;2024-03-17T09:14:38;11.32;;;5.40;;
40198;SDS011;25906;43.536;26.068;2024-03-17T09:17:25;7.63;;;4.43;;
40198;SDS011;25906;43.536;26.068;2024-03-17T09:20:12;6.90;;;4.43;;
40198;SDS011;25906;43.536;26.068;2024-03-17T09:22:58;6.95;;;3.85;;
40198;SDS011;25906;43.536;26.068;2024-03-17T09:25:54;8.02;;;4.30;;
40198;SDS011;25906;43.536;26.068;2024-03-17T09:28:43;9.95;;;4.97;;
40198;SDS011;25906;43.536;26.068;2024-03-17T09:31:29;6.70;;;4.57;;
40198;SDS011;25906;43.536;26.068;2024-03-17T09:34:15;7.15;;;4.57;;
40198;SDS011;25906;43.536;26.068;2024-03-17T09:37:01;7.95;;;4.50;;
40198;SDS011;25906;43.536;26.068;2024-03-17T09:39:47;10.85;;;5.55;;
40198;SDS011;25906;43.536;26.068;2024-03-17T09:42:33;6.13;;;4.32;;
40198;SDS011;25906;43.536;26.068;2024-03-17T09:45:19;9.25;;;4.72;;
40198;SDS011;25906;43.536;26.068;2024-03-17T09:48:05;8.77;;;4.95;;
40198;SDS011;25906;43.536;26.068;2024-03-17T09:50:59;6.90;;;4.25;;
40198;SDS011;25906;43.536;26.068;2024-03-17T09:53:46;5.53;;;3.58;;
40198;SDS011;25906;43.536;26.068;2024-03-17T09:59:20;7.30;;;4.80;;
40198;SDS011;25906;43.536;26.068;2024-03-17T10:02:27;8.13;;;4.72;;
40198;SDS011;25906;43.536;26.068;2024-03-17T10:05:18;5.20;;;3.80;;
40198;SDS011;25906;43.536;26.068;2024-03-17T10:08:20;6.50;;;4.32;;
40198;SDS011;25906;43.536;26.068;2024-03-17T10:11:07;8.85;;;3.95;;
40198;SDS011;25906;43.536;26.068;2024-03-17T10:14:06;5.25;;;3.78;;
40198;SDS011;25906;43.536;26.068;2024-03-17T10:16:53;6.32;;;4.15;;
40198;SDS011;25906;43.536;26.068;2024-03-17T10:19:41;5.25;;;3.42;;
40198;SDS011;25906;43.536;26.068;2024-03-17T10:22:29;4.72;;;3.50;;
40198;SDS011;25906;43.536;26.068;2024-03-17T10:25:14;9.18;;;4.05;;
40198;SDS011;25906;43.536;26.068;2024-03-17T10:28:00;5.07;;;3.10;;
40198;SDS011;25906;43.536;26.068;2024-03-17T10:30:59;3.92;;;3.13;;
40198;SDS011;25906;43.536;26.068;2024-03-17T10:33:48;7.93;;;3.28;;
40198;SDS011;25906;43.536;26.068;2024-03-17T10:36:46;3.65;;;3.00;;
40198;SDS011;25906;43.536;26.068;2024-03-17T10:39:32;4.75;;;3.60;;
40198;SDS011;25906;43.536;26.068;2024-03-17T10:42:27;5.97;;;4.00;;
40198;SDS011;25906;43.536;26.068;2024-03-17T10:45:13;5.68;;;3.92;;
40198;SDS011;25906;43.536;26.068;2024-03-17T10:47:59;5.50;;;3.72;;
40198;SDS011;25906;43.536;26.068;2024-03-17T10:50:49;4.60;;;3.13;;
40198;SDS011;25906;43.536;26.068;2024-03-17T10:53:37;5.00;;;3.17;;
40198;SDS011;25906;43.536;26.068;2024-03-17T10:56:23;3.58;;;2.92;;
40198;SDS011;25906;43.536;26.068;2024-03-17T10:59:09;4.43;;;3.35;;
40198;SDS011;25906;43.536;26.068;2024-03-17T11:01:56;6.25;;;3.05;;
40198;SDS011;25906;43.536;26.068;2024-03-17T11:07:27;3.90;;;3.15;;
40198;SDS011;25906;43.536;26.068;2024-03-17T11:10:20;7.20;;;4.68;;
40198;SDS011;25906;43.536;26.068;2024-03-17T11:13:12;6.65;;;3.65;;
40198;SDS011;25906;43.536;26.068;2024-03-17T11:16:25;7.93;;;3.97;;
40198;SDS011;25906;43.536;26.068;2024-03-17T11:19:17;4.82;;;3.80;;
40198;SDS011;25906;43.536;26.068;2024-03-17T11:28:12;6.05;;;4.10;;
40198;SDS011;25906;43.536;26.068;2024-03-17T11:40:26;6.63;;;3.70;;
40198;SDS011;25906;43.536;26.068;2024-03-17T11:43:17;4.30;;;3.20;;
40198;SDS011;25906;43.536;26.068;2024-03-17T11:46:07;4.15;;;3.28;;
40198;SDS011;25906;43.536;26.068;2024-03-17T11:49:03;4.82;;;3.22;;
40198;SDS011;25906;43.536;26.068;2024-03-17T11:51:55;4.78;;;3.25;;
40198;SDS011;25906;43.536;26.068;2024-03-17T11:54:43;6.28;;;3.88;;
40198;SDS011;25906;43.536;26.068;2024-03-17T11:57:30;3.45;;;2.90;;
40198;SDS011;25906;43.536;26.068;2024-03-17T12:00:23;6.15;;;3.33;;
40198;SDS011;25906;43.536;26.068;2024-03-17T12:03:10;9.48;;;5.35;;
40198;SDS011;25906;43.536;26.068;2024-03-17T12:05:56;4.63;;;3.20;;
40198;SDS011;25906;43.536;26.068;2024-03-17T12:08:45;3.38;;;3.03;;
40198;SDS011;25906;43.536;26.068;2024-03-17T12:11:30;5.03;;;3.17;;
40198;SDS011;25906;43.536;26.068;2024-03-17T12:14:19;5.85;;;3.50;;
40198;SDS011;25906;43.536;26.068;2024-03-17T12:17:08;5.97;;;4.40;;
40198;SDS011;25906;43.536;26.068;2024-03-17T12:19:54;8.45;;;5.43;;
40198;SDS011;25906;43.536;26.068;2024-03-17T12:22:51;6.55;;;4.22;;
40198;SDS011;25906;43.536;26.068;2024-03-17T12:25:40;4.80;;;3.33;;
40198;SDS011;25906;43.536;26.068;2024-03-17T12:28:25;3.60;;;2.92;;
40198;SDS011;25906;43.536;26.068;2024-03-17T12:31:11;6.30;;;4.50;;
40198;SDS011;25906;43.536;26.068;2024-03-17T12:33:57;4.53;;;3.53;;
40198;SDS011;25906;43.536;26.068;2024-03-17T12:36:46;5.78;;;3.80;;
40198;SDS011;25906;43.536;26.068;2024-03-17T12:39:33;6.47;;;4.53;;
40198;SDS011;25906;43.536;26.068;2024-03-17T12:42:23;6.13;;;3.92;;
40198;SDS011;25906;43.536;26.068;2024-03-17T12:45:09;4.40;;;3.25;;
40198;SDS011;25906;43.536;26.068;2024-03-17T12:47:55;6.05;;;3.15;;
40198;SDS011;25906;43.536;26.068;2024-03-17T12:50:45;6.22;;;3.90;;
40198;SDS011;25906;43.536;26.068;2024-03-17T12:53:31;6.35;;;3.47;;
40198;SDS011;25906;43.536;26.068;2024-03-17T12:59:48;4.93;;;3.47;;
40198;SDS011;25906;43.536;26.068;2024-03-17T13:02:52;3.42;;;2.88;;
40198;SDS011;25906;43.536;26.068;2024-03-17T13:05:38;5.25;;;3.80;;
40198;SDS011;25906;43.536;26.068;2024-03-17T13:08:33;7.80;;;3.88;;
40198;SDS011;25906;43.536;26.068;2024-03-17T13:11:18;6.13;;;4.28;;
40198;SDS011;25906;43.536;26.068;2024-03-17T13:14:07;7.90;;;4.68;;
40198;SDS011;25906;43.536;26.068;2024-03-17T13:16:58;7.88;;;4.18;;
40198;SDS011;25906;43.536;26.068;2024-03-17T13:19:47;7.32;;;4.93;;
40198;SDS011;25906;43.536;26.068;2024-03-17T13:22:36;6.97;;;4.05;;
40198;SDS011;25906;43.536;26.068;2024-03-17T13:25:24;11.52;;;4.30;;
40198;SDS011;25906;43.536;26.068;2024-03-17T13:28:19;6.22;;;4.00;;
40198;SDS011;25906;43.536;26.068;2024-03-17T13:31:07;7.10;;;4.43;;
40198;SDS011;25906;43.536;26.068;2024-03-17T13:33:55;4.70;;;3.53;;
40198;SDS011;25906;43.536;26.068;2024-03-17T13:36:47;5.93;;;3.40;;
40198;SDS011;25906;43.536;26.068;2024-03-17T13:39:38;5.38;;;3.45;;
40198;SDS011;25906;43.536;26.068;2024-03-17T13:42:23;6.68;;;3.97;;
40198;SDS011;25906;43.536;26.068;2024-03-17T13:45:09;6.25;;;4.20;;
40198;SDS011;25906;43.536;26.068;2024-03-17T13:47:57;4.95;;;3.20;;
40198;SDS011;25906;43.536;26.068;2024-03-17T13:50:47;4.38;;;3.80;;
40198;SDS011;25906;43.536;26.068;2024-03-17T13:53:34;5.55;;;3.50;;
40198;SDS011;25906;43.536;26.068;2024-03-17T13:56:20;5.38;;;3.70;;
40198;SDS011;25906;43.536;26.068;2024-03-17T13:59:06;4.90;;;3.53;;
40198;SDS011;25906;43.536;26.068;2024-03-17T14:01:51;5.20;;;3.60;;
40198;SDS011;25906;43.536;26.068;2024-03-17T14:04:39;5.78;;;3.97;;
40198;SDS011;25906;43.536;26.068;2024-03-17T14:07:25;6.32;;;3.80;;
40198;SDS011;25906;43.536;26.068;2024-03-17T14:10:12;6.22;;;4.22;;
40198;SDS011;25906;43.536;26.068;2024-03-17T14:12:58;6.07;;;3.70;;
40198;SDS011;25906;43.536;26.068;2024-03-17T14:15:47;7.43;;;3.50;;
40198;SDS011;25906;43.536;26.068;2024-03-17T14:18:32;5.60;;;3.35;;
40198;SDS011;25906;43.536;26.068;2024-03-17T14:21:21;3.65;;;3.22;;
40198;SDS011;25906;43.536;26.068;2024-03-17T14:24:09;5.20;;;3.67;;
40198;SDS011;25906;43.536;26.068;2024-03-17T14:26:58;5.47;;;3.42;;
40198;SDS011;25906;43.536;26.068;2024-03-17T14:29:46;5.28;;;3.33;;
40198;SDS011;25906;43.536;26.068;2024-03-17T14:32:38;6.38;;;3.55;;
40198;SDS011;25906;43.536;26.068;2024-03-17T14:35:24;6.97;;;4.13;;
40198;SDS011;25906;43.536;26.068;2024-03-17T14:38:11;5.38;;;3.55;;
40198;SDS011;25906;43.536;26.068;2024-03-17T14:40:59;5.95;;;4.20;;
40198;SDS011;25906;43.536;26.068;2024-03-17T14:43:49;7.75;;;4.22;;
40198;SDS011;25906;43.536;26.068;2024-03-17T14:46:35;6.90;;;3.67;;
40198;SDS011;25906;43.536;26.068;2024-03-17T14:49:22;5.28;;;3.55;;
40198;SDS011;25906;43.536;26.068;2024-03-17T14:52:08;4.40;;;3.47;;
40198;SDS011;25906;43.536;26.068;2024-03-17T14:54:57;7.47;;;3.65;;
40198;SDS011;25906;43.536;26.068;2024-03-17T14:57:42;6.13;;;3.72;;
40198;SDS011;25906;43.536;26.068;2024-03-17T15:00:28;4.68;;;3.08;;
40198;SDS011;25906;43.536;26.068;2024-03-17T15:03:16;5.18;;;3.25;;
40198;SDS011;25906;43.536;26.068;2024-03-17T15:06:14;4.35;;;3.20;;
40198;SDS011;25906;43.536;26.068;2024-03-17T15:09:03;5.38;;;2.80;;
40198;SDS011;25906;43.536;26.068;2024-03-17T15:11:49;3.88;;;3.00;;
40198;SDS011;25906;43.536;26.068;2024-03-17T15:14:35;3.63;;;2.60;;
40198;SDS011;25906;43.536;26.068;2024-03-17T15:17:22;3.65;;;2.50;;
40198;SDS011;25906;43.536;26.068;2024-03-17T15:20:12;5.05;;;2.88;;
40198;SDS011;25906;43.536;26.068;2024-03-17T15:23:01;4.07;;;2.97;;
40198;SDS011;25906;43.536;26.068;2024-03-17T15:25:48;5.15;;;3.00;;
40198;SDS011;25906;43.536;26.068;2024-03-17T15:28:34;14.43;;;3.28;;
40198;SDS011;25906;43.536;26.068;2024-03-17T15:31:24;4.18;;;2.83;;
40198;SDS011;25906;43.536;26.068;2024-03-17T15:34:09;3.45;;;2.75;;
40198;SDS011;25906;43.536;26.068;2024-03-17T15:36:56;6.65;;;3.50;;
40198;SDS011;25906;43.536;26.068;2024-03-17T15:39:42;7.47;;;3.22;;
40198;SDS011;25906;43.536;26.068;2024-03-17T15:42:28;6.78;;;3.42;;
40198;SDS011;25906;43.536;26.068;2024-03-17T15:45:14;9.85;;;3.70;;
40198;SDS011;25906;43.536;26.068;2024-03-17T15:48:08;4.80;;;3.03;;
40198;SDS011;25906;43.536;26.068;2024-03-17T15:50:55;5.28;;;4.00;;
40198;SDS011;25906;43.536;26.068;2024-03-17T15:53:41;7.53;;;3.40;;
40198;SDS011;25906;43.536;26.068;2024-03-17T15:56:28;4.72;;;3.17;;
40198;SDS011;25906;43.536;26.068;2024-03-17T15:59:18;6.00;;;3.38;;
40198;SDS011;25906;43.536;26.068;2024-03-17T16:02:07;6.07;;;3.35;;
40198;SDS011;25906;43.536;26.068;2024-03-17T16:04:56;5.50;;;3.03;;
40198;SDS011;25906;43.536;26.068;2024-03-17T16:07:41;4.65;;;3.08;;
40198;SDS011;25906;43.536;26.068;2024-03-17T16:10:27;4.93;;;3.30;;
40198;SDS011;25906;43.536;26.068;2024-03-17T16:13:14;5.95;;;3.00;;
40198;SDS011;25906;43.536;26.068;2024-03-17T16:16:00;5.63;;;3.40;;
40198;SDS011;25906;43.536;26.068;2024-03-17T16:18:47;7.63;;;3.58;;
40198;SDS011;25906;43.536;26.068;2024-03-17T16:21:33;4.55;;;3.47;;
40198;SDS011;25906;43.536;26.068;2024-03-17T16:24:18;3.88;;;3.17;;
40198;SDS011;25906;43.536;26.068;2024-03-17T16:27:04;4.97;;;3.30;;
40198;SDS011;25906;43.536;26.068;2024-03-17T16:29:50;5.32;;;3.30;;
40198;SDS011;25906;43.536;26.068;2024-03-17T16:32:35;5.22;;;3.33;;
40198;SDS011;25906;43.536;26.068;2024-03-17T16:35:21;5.68;;;3.17;;
40198;SDS011;25906;43.536;26.068;2024-03-17T16:38:09;3.83;;;3.00;;
40198;SDS011;25906;43.536;26.068;2024-03-17T16:40:58;4.38;;;2.95;;
40198;SDS011;25906;43.536;26.068;2024-03-17T16:49:50;6.50;;;3.50;;
40198;SDS011;25906;43.536;26.068;2024-03-17T16:52:36;8.77;;;3.15;;
40198;SDS011;25906;43.536;26.068;2024-03-17T16:55:25;5.70;;;3.40;;
40198;SDS011;25906;43.536;26.068;2024-03-17T16:58:10;5.97;;;3.53;;
40198;SDS011;25906;43.536;26.068;2024-03-17T17:00:56;5.53;;;3.47;;
40198;SDS011;25906;43.536;26.068;2024-03-17T17:03:43;5.45;;;3.55;;
40198;SDS011;25906;43.536;26.068;2024-03-17T17:06:29;6.72;;;4.18;;
40198;SDS011;25906;43.536;26.068;2024-03-17T17:09:14;10.40;;;6.97;;
40198;SDS011;25906;43.536;26.068;2024-03-17T17:12:00;14.93;;;9.00;;
40198;SDS011;25906;43.536;26.068;2024-03-17T17:14:46;11.25;;;7.45;;